Time;durP1;ratioP1;P1;durP2;ratioP2;P2;SDS_P1;SDS_P2;PMS_P1;PMS_P2;Temp;Humidity;BMP_temperature;BMP_pressure;BME280_temperature;BME280_humidity;BME280_pressure;Samples;Min_cycle;Max_cycle;Signal;HPM_P1;HPM_P2
2023/07/27 00:00:12;;;;;;;5.47;4.72;;;;;;;30.25;48.38;98141.59;5034483;28;20041;-63
2023/07/27 00:02:41;;;;;;;6.45;5.10;;;;;;;30.24;47.84;98150.97;5018858;28;20049;-65
2023/07/27 00:05:07;;;;;;;6.40;5.18;;;;;;;30.18;48.49;98161.25;5034725;28;20051;-63
2023/07/27 00:07:33;;;;;;;8.13;5.13;;;;;;;30.07;49.02;98159.13;5017793;28;20478;-65
2023/07/27 00:10:00;;;;;;;7.32;4.90;;;;;;;30.04;48.39;98152.38;5034499;28;20049;-63
2023/07/27 00:12:26;;;;;;;7.53;5.00;;;;;;;30.17;48.79;98167.03;5017682;28;20214;-63
2023/07/27 00:14:52;;;;;;;10.00;5.20;;;;;;;30.06;48.75;98171.22;5034331;28;20049;-63
2023/07/27 00:17:19;;;;;;;6.20;5.05;;;;;;;30.12;48.82;98184.44;5034290;28;20507;-63
2023/07/27 00:19:45;;;;;;;9.55;4.88;;;;;;;30.05;48.70;98186.81;5034293;28;20479;-63
2023/07/27 00:22:11;;;;;;;8.20;5.38;;;;;;;30.01;48.92;98176.84;5051073;28;20557;-63
2023/07/27 00:24:37;;;;;;;6.97;5.13;;;;;;;29.99;49.12;98179.88;5034606;28;20159;-62
2023/07/27 00:27:04;;;;;;;10.07;5.68;;;;;;;29.92;48.85;98185.03;5016660;28;20049;-64
2023/07/27 00:29:31;;;;;;;7.18;5.45;;;;;;;29.91;48.44;98196.31;5016648;28;20045;-63
2023/07/27 00:31:58;;;;;;;10.27;5.90;;;;;;;29.69;49.38;98199.94;5016874;28;20052;-63
2023/07/27 00:34:24;;;;;;;7.80;5.50;;;;;;;29.51;49.55;98201.75;5016796;28;20159;-64
2023/07/27 00:36:50;;;;;;;9.27;5.30;;;;;;;29.30;50.79;98203.44;5000368;28;20072;-63
2023/07/27 00:39:16;;;;;;;9.95;5.88;;;;;;;29.14;51.86;98191.25;5032911;28;20548;-63
2023/07/27 00:41:43;;;;;;;10.10;5.65;;;;;;;29.18;52.28;98183.25;5033544;28;20049;-63
2023/07/27 00:44:10;;;;;;;7.53;5.35;;;;;;;29.36;51.19;98199.44;5016877;28;20052;-63
2023/07/27 00:46:37;;;;;;;10.65;5.45;;;;;;;29.47;51.19;98203.50;5016681;28;20415;-63
2023/07/27 00:49:05;;;;;;;7.88;5.53;;;;;;;29.50;51.02;98196.59;5049583;28;20124;-63
2023/07/27 00:51:35;;;;;;;6.72;5.28;;;;;;;29.84;50.34;98206.91;5018031;28;20057;-63
2023/07/27 00:54:02;;;;;;;8.38;6.00;;;;;;;29.80;49.83;98212.19;5017630;28;20048;-63
2023/07/27 00:56:29;;;;;;;9.48;5.95;;;;;;;29.77;49.65;98217.50;5016509;28;20118;-63
2023/07/27 00:58:58;;;;;;;7.82;5.68;;;;;;;29.97;48.85;98220.47;5001286;28;20140;-63
2023/07/27 01:01:24;;;;;;;7.60;5.90;;;;;;;29.84;48.32;98228.78;5017101;28;20127;-64
2023/07/27 01:03:51;;;;;;;11.38;6.45;;;;;;;29.80;48.59;98242.28;5003821;28;20202;-64
2023/07/27 01:06:17;;;;;;;11.60;7.18;;;;;;;29.54;49.50;98238.59;5021168;28;20033;-64
2023/07/27 01:08:43;;;;;;;11.73;6.07;;;;;;;29.41;50.13;98243.06;5021757;28;20059;-63
2023/07/27 01:11:23;;;;;;;12.00;6.15;;;;;;;29.61;49.60;98247.19;5020941;28;20126;-63
2023/07/27 01:14:01;;;;;;;7.22;6.10;;;;;;;29.42;50.96;98255.63;5054231;28;20498;-63
2023/07/27 01:16:34;;;;;;;12.10;7.03;;;;;;;29.35;50.79;98255.25;5053850;28;20055;-63
2023/07/27 01:19:21;;;;;;;7.93;6.00;;;;;;;29.28;51.43;98243.94;5037340;28;20148;-63
2023/07/27 01:21:49;;;;;;;13.60;6.40;;;;;;;29.17;51.97;98248.06;5020980;28;20044;-63
2023/07/27 01:24:34;;;;;;;15.50;6.88;;;;;;;29.31;51.69;98243.31;5036702;28;20138;-65
2023/07/27 01:27:11;;;;;;;9.75;6.80;;;;;;;29.11;51.92;98232.91;5036219;28;20417;-63
2023/07/27 01:30:22;;;;;;;12.80;7.10;;;;;;;29.20;51.14;98249.38;5019989;28;20572;-63
2023/07/27 01:32:55;;;;;;;9.52;6.80;;;;;;;28.73;53.23;98248.03;5003368;28;20075;-63
2023/07/27 01:35:21;;;;;;;9.75;6.85;;;;;;;28.57;53.83;98230.34;5003266;28;20048;-64
2023/07/27 01:37:48;;;;;;;11.60;6.75;;;;;;;28.66;54.64;98206.63;5012969;28;20080;-64
2023/07/27 01:40:14;;;;;;;10.35;6.90;;;;;;;28.78;53.19;98223.31;4997594;28;20088;-63
2023/07/27 01:42:42;;;;;;;12.05;7.72;;;;;;;28.88;53.16;98231.25;4962592;28;20054;-63
2023/07/27 01:45:08;;;;;;;12.98;7.47;;;;;;;28.82;52.99;98229.75;4962442;28;20074;-63
2023/07/27 01:47:35;;;;;;;9.77;7.72;;;;;;;28.73;53.12;98225.34;4976776;28;20100;-63
2023/07/27 01:50:03;;;;;;;10.25;7.72;;;;;;;28.52;53.77;98216.81;4960938;28;20188;-62
2023/07/27 01:52:31;;;;;;;14.32;7.70;;;;;;;28.56;53.73;98226.00;4945192;28;20446;-63
2023/07/27 01:54:57;;;;;;;13.05;7.70;;;;;;;28.46;54.16;98209.00;4955553;28;20051;-63
2023/07/27 01:57:23;;;;;;;10.00;7.82;;;;;;;28.61;54.13;98217.69;4942143;28;20093;-63
2023/07/27 01:59:49;;;;;;;12.13;7.40;;;;;;;28.85;53.22;98220.94;4959281;28;20035;-63
2023/07/27 02:02:15;;;;;;;11.95;7.30;;;;;;;28.91;52.20;98225.16;4942632;28;20051;-63
2023/07/27 02:04:42;;;;;;;12.10;7.90;;;;;;;28.92;52.18;98237.69;4957263;28;20043;-63
2023/07/27 02:07:07;;;;;;;11.18;8.15;;;;;;;28.79;52.27;98235.84;4957525;28;20039;-66
2023/07/27 02:09:33;;;;;;;8.40;7.38;;;;;;;28.65;52.71;98232.34;5022695;28;20172;-63
2023/07/27 02:12:05;;;;;;;9.52;7.25;;;;;;;28.75;53.28;98244.97;4979641;28;20084;-63
2023/07/27 02:14:45;;;;;;;11.80;8.68;;;;;;;28.75;53.25;98245.78;5031060;28;20501;-62
2023/07/27 02:17:20;;;;;;;11.25;8.40;;;;;;;28.65;53.87;98237.81;5005349;28;20040;-63
2023/07/27 02:20:10;;;;;;;9.48;8.00;;;;;;;28.75;54.04;98236.78;5039517;28;20057;-63
2023/07/27 02:22:42;;;;;;;12.90;8.48;;;;;;;28.87;53.28;98237.03;5004138;28;20116;-63
2023/07/27 02:25:09;;;;;;;8.98;7.57;;;;;;;28.80;52.88;98237.44;5037181;28;20045;-63
2023/07/27 02:27:36;;;;;;;14.27;7.60;;;;;;;28.99;51.90;98229.06;5020816;28;20076;-63
2023/07/27 02:30:02;;;;;;;10.73;7.40;;;;;;;29.15;51.44;98225.66;5021123;28;20490;-63
2023/07/27 02:32:34;;;;;;;12.73;8.05;;;;;;;29.31;49.99;98226.09;5022119;28;20052;-62
2023/07/27 02:35:00;;;;;;;11.65;7.72;;;;;;;29.42;49.66;98228.25;5036933;28;20114;-63
2023/07/27 02:37:31;;;;;;;9.93;7.60;;;;;;;29.47;49.41;98219.94;5036858;28;20048;-63
2023/07/27 02:39:58;;;;;;;12.35;7.78;;;;;;;29.63;49.68;98208.56;5036008;28;20479;-63
2023/07/27 02:42:24;;;;;;;9.00;7.13;;;;;;;29.54;49.35;98181.16;5019359;28;20104;-63
2023/07/27 02:44:50;;;;;;;9.25;7.00;;;;;;;29.68;49.14;98184.63;5036360;28;20174;-65
2023/07/27 02:47:17;;;;;;;13.85;7.32;;;;;;;29.74;48.99;98186.09;5020027;28;20056;-63
2023/07/27 02:49:43;;;;;;;10.82;7.15;;;;;;;29.91;48.27;98177.94;5035770;28;20365;-63
2023/07/27 02:52:09;;;;;;;9.70;7.43;;;;;;;29.90;47.67;98175.50;5019882;28;20053;-64
2023/07/27 02:54:36;;;;;;;10.10;7.50;;;;;;;29.97;47.75;98173.13;5036447;28;20471;-64
2023/07/27 02:57:02;;;;;;;10.15;7.72;;;;;;;29.92;47.75;98165.88;5036251;28;20059;-63
2023/07/27 02:59:35;;;;;;;11.25;7.60;;;;;;;30.06;48.79;98168.47;5036860;28;20052;-63
2023/07/27 03:02:01;;;;;;;10.20;7.68;;;;;;;30.11;49.18;98151.88;5052323;28;20049;-64
2023/07/27 03:04:33;;;;;;;13.25;7.53;;;;;;;30.37;48.33;98128.88;5036252;28;20037;-64
2023/07/27 03:07:00;;;;;;;16.08;9.07;;;;;;;30.46;46.63;98102.28;5019068;28;20036;-64
2023/07/27 03:09:26;;;;;;;11.18;8.50;;;;;;;30.58;45.58;98096.16;5018945;28;20076;-64
2023/07/27 03:11:52;;;;;;;13.57;8.52;;;;;;;30.50;46.15;98099.72;5019054;28;20092;-65
2023/07/27 03:14:20;;;;;;;12.25;8.60;;;;;;;30.58;46.11;98145.50;5035757;28;20045;-64
2023/07/27 03:16:46;;;;;;;14.77;9.32;;;;;;;30.77;45.53;98170.63;5035111;28;20051;-65
2023/07/27 03:19:12;;;;;;;11.52;7.75;;;;;;;30.88;45.25;98196.59;5052316;28;20040;-64
2023/07/27 03:21:41;;;;;;;12.20;8.20;;;;;;;31.03;44.42;98231.75;5018955;28;20483;-64
2023/07/27 03:24:07;;;;;;;12.13;8.10;;;;;;;31.24;43.50;98256.56;5035250;28;20071;-64
2023/07/27 03:26:33;;;;;;;13.32;8.07;;;;;;;31.28;42.66;98272.06;5033911;28;20045;-64
2023/07/27 03:28:59;;;;;;;14.30;8.10;;;;;;;31.02;43.30;98269.34;5035116;28;20068;-64
2023/07/27 03:31:27;;;;;;;17.88;7.88;;;;;;;31.25;43.65;98286.41;5002196;28;20095;-64
2023/07/27 03:33:54;;;;;;;10.65;7.38;;;;;;;31.01;43.59;98299.84;5035107;28;20048;-64
2023/07/27 03:36:22;;;;;;;11.90;7.45;;;;;;;31.11;43.78;98310.47;5051601;28;20048;-69
2023/07/27 03:38:49;;;;;;;11.07;7.78;;;;;;;30.82;43.44;98329.50;5021074;28;20151;-77
2023/07/27 03:41:15;;;;;;;13.32;7.75;;;;;;;30.85;43.31;98340.63;5053336;28;20086;-66
2023/07/27 03:43:41;;;;;;;14.55;7.78;;;;;;;30.86;43.36;98346.94;5020682;28;20044;-66
2023/07/27 03:46:07;;;;;;;12.85;8.98;;;;;;;30.75;44.12;98342.88;5020465;28;20051;-66
2023/07/27 03:48:33;;;;;;;14.60;8.77;;;;;;;30.60;44.84;98346.84;5020553;28;20041;-66
2023/07/27 03:51:00;;;;;;;15.20;8.90;;;;;;;30.75;45.58;98343.66;5069968;28;20083;-66
2023/07/27 03:53:27;;;;;;;15.18;9.50;;;;;;;30.65;45.97;98345.88;5036384;28;20551;-66
2023/07/27 03:55:56;;;;;;;10.07;8.65;;;;;;;30.59;45.97;98360.88;5047233;28;20068;-66
2023/07/27 03:58:26;;;;;;;15.48;9.32;;;;;;;30.51;46.76;98358.91;5036573;28;20059;-65
2023/07/27 04:00:51;;;;;;;11.63;9.40;;;;;;;30.28;46.99;98357.38;5034339;28;20055;-65
2023/07/27 04:03:17;;;;;;;17.25;8.68;;;;;;;30.32;47.05;98374.81;5052645;28;20068;-66
2023/07/27 04:05:43;;;;;;;22.33;8.98;;;;;;;30.35;46.90;98382.41;5036034;28;20423;-66
2023/07/27 04:08:14;;;;;;;11.73;8.20;;;;;;;30.38;46.40;98396.28;5020677;28;20051;-66
2023/07/27 04:10:40;;;;;;;11.73;9.15;;;;;;;30.21;46.85;98404.41;5035029;28;20124;-67
2023/07/27 04:13:06;;;;;;;13.50;9.23;;;;;;;29.83;48.27;98410.59;5017336;28;20471;-68
2023/07/27 04:15:34;;;;;;;10.95;9.60;;;;;;;29.38;50.12;98401.53;5015378;28;20057;-68
2023/07/27 04:18:02;;;;;;;12.10;10.40;;;;;;;29.48;51.19;98410.31;5035125;28;20502;-68
2023/07/27 04:20:29;;;;;;;13.68;10.02;;;;;;;29.13;52.15;98408.41;5017142;28;20063;-68
2023/07/27 04:22:55;;;;;;;15.73;11.55;;;;;;;28.71;53.56;98408.72;5001315;28;20049;-72
2023/07/27 04:25:24;;;;;;;16.45;10.52;;;;;;;28.71;54.39;98405.19;5017352;28;20048;-67
2023/07/27 04:27:55;;;;;;;15.27;10.50;;;;;;;28.53;55.27;98412.38;5033397;28;20118;-66
2023/07/27 04:30:21;;;;;;;19.05;10.50;;;;;;;28.31;55.64;98417.69;4995241;28;20053;-66
2023/07/27 04:32:47;;;;;;;16.05;10.88;;;;;;;28.18;56.46;98429.44;4976315;28;20393;-67
2023/07/27 04:35:14;;;;;;;14.43;11.05;;;;;;;28.14;56.67;98419.41;4986882;28;20137;-66
2023/07/27 04:37:40;;;;;;;18.08;10.90;;;;;;;28.13;57.12;98415.88;4942784;28;20449;-66
2023/07/27 04:40:06;;;;;;;17.30;11.35;;;;;;;28.23;56.84;98417.59;4958701;28;20141;-67
2023/07/27 04:42:33;;;;;;;18.48;11.32;;;;;;;28.09;56.84;98428.50;4946477;28;20052;-66
2023/07/27 04:44:59;;;;;;;23.42;11.60;;;;;;;27.91;57.93;98421.16;4978438;28;20144;-66
2023/07/27 04:47:26;;;;;;;15.95;11.82;;;;;;;28.02;57.76;98420.69;4962863;28;20042;-66
2023/07/27 04:49:54;;;;;;;12.00;10.57;;;;;;;28.07;57.33;98403.41;4978803;28;20124;-67
2023/07/27 04:52:20;;;;;;;14.18;10.93;;;;;;;28.08;57.62;98382.41;5014676;28;20498;-66
2023/07/27 04:54:47;;;;;;;14.38;11.05;;;;;;;28.36;57.38;98376.66;5014314;28;20104;-66
2023/07/27 04:57:12;;;;;;;19.50;12.07;;;;;;;28.29;56.79;98386.34;4965218;28;20057;-66
2023/07/27 04:59:38;;;;;;;15.50;10.63;;;;;;;28.35;57.03;98372.31;4965386;28;20080;-65
2023/07/27 05:02:07;;;;;;;17.00;10.98;;;;;;;28.72;56.42;98361.19;4996639;28;20518;-66
2023/07/27 05:04:33;;;;;;;13.68;10.10;;;;;;;28.61;56.04;98376.16;5020354;28;20048;-66
2023/07/27 05:07:01;;;;;;;15.68;10.45;;;;;;;28.86;55.31;98381.06;5000482;28;20476;-66
2023/07/27 05:09:26;;;;;;;13.68;10.52;;;;;;;28.58;55.23;98387.72;4984978;28;20073;-65
2023/07/27 05:11:54;;;;;;;15.75;10.35;;;;;;;28.86;55.67;98388.47;5000803;28;20170;-66
2023/07/27 05:14:19;;;;;;;18.38;10.30;;;;;;;28.79;54.90;98399.81;4984202;28;20048;-65
2023/07/27 05:16:47;;;;;;;16.73;10.05;;;;;;;28.63;55.04;98414.13;5000548;28;20128;-65
2023/07/27 05:19:12;;;;;;;15.88;10.15;;;;;;;28.53;56.01;98417.03;5000804;28;20630;-65
2023/07/27 05:21:38;;;;;;;14.35;10.85;;;;;;;28.40;57.01;98412.38;5016867;28;20140;-65
2023/07/27 05:24:08;;;;;;;14.82;10.30;;;;;;;28.66;56.51;98408.03;4952565;28;20440;-65
2023/07/27 05:26:34;;;;;;;15.07;10.30;;;;;;;28.62;55.87;98409.75;4985491;28;20049;-66
2023/07/27 05:29:00;;;;;;;16.80;9.85;;;;;;;28.77;55.58;98418.44;4984231;28;20064;-65
2023/07/27 05:31:31;;;;;;;11.55;9.07;;;;;;;28.89;55.13;98407.78;4981287;28;20052;-65
2023/07/27 05:33:57;;;;;;;12.93;9.67;;;;;;;29.08;54.64;98400.31;4997346;28;20416;-66
2023/07/27 05:36:23;;;;;;;16.38;10.32;;;;;;;29.25;53.45;98414.13;4982277;28;20080;-65
2023/07/27 05:38:49;;;;;;;13.25;10.43;;;;;;;29.37;53.09;98408.94;4999396;28;20161;-65
2023/07/27 05:41:16;;;;;;;17.30;9.98;;;;;;;29.53;52.89;98398.44;5000500;28;20041;-66
2023/07/27 05:43:42;;;;;;;18.60;8.68;;;;;;;29.90;52.37;98395.34;4984490;28;20095;-65
2023/07/27 05:46:08;;;;;;;11.52;8.95;;;;;;;29.98;50.66;98399.25;4983862;28;20050;-66
2023/07/27 05:48:34;;;;;;;12.52;8.73;;;;;;;30.35;49.91;98412.53;4983821;28;20121;-65
2023/07/27 05:51:01;;;;;;;12.55;8.95;;;;;;;30.58;48.50;98414.06;5032254;28;20441;-69
2023/07/27 05:53:29;;;;;;;13.13;8.60;;;;;;;30.82;46.92;98417.22;5033143;28;20057;-65
2023/07/27 05:55:55;;;;;;;14.25;8.68;;;;;;;31.04;46.52;98417.13;5016514;28;20085;-65
2023/07/27 05:58:21;;;;;;;13.15;8.43;;;;;;;31.09;44.76;98406.00;4999740;28;20080;-66
2023/07/27 06:00:48;;;;;;;9.77;7.72;;;;;;;31.17;45.07;98398.91;4964188;28;20049;-65
2023/07/27 06:03:14;;;;;;;13.23;9.13;;;;;;;31.34;44.14;98399.75;4980422;28;20042;-66
2023/07/27 06:05:44;;;;;;;8.77;7.47;;;;;;;31.89;43.56;98408.16;4980470;28;20120;-65
2023/07/27 06:08:10;;;;;;;11.45;7.70;;;;;;;32.10;42.79;98407.13;4998138;28;20053;-65
2023/07/27 06:10:35;;;;;;;11.05;7.03;;;;;;;32.55;41.04;98400.03;4983403;28;20053;-66
2023/07/27 06:13:02;;;;;;;8.18;6.38;;;;;;;32.95;39.31;98396.94;4998396;28;20056;-65
2023/07/27 06:15:30;;;;;;;17.05;6.78;;;;;;;33.31;38.40;98400.72;4976237;28;20088;-65
2023/07/27 06:17:58;;;;;;;14.93;7.18;;;;;;;33.46;38.17;98402.09;4968266;28;20055;-65
2023/07/27 06:20:27;;;;;;;18.20;7.30;;;;;;;33.70;37.85;98391.19;4967456;28;20037;-65
2023/07/27 06:22:52;;;;;;;12.02;6.75;;;;;;;33.45;37.54;98386.69;4983480;28;20148;-65
2023/07/27 06:25:18;;;;;;;13.18;6.80;;;;;;;33.45;37.42;98386.69;5015636;28;20053;-66
2023/07/27 06:27:44;;;;;;;9.20;5.53;;;;;;;33.36;36.38;98386.75;5000314;28;20037;-65
2023/07/27 06:30:12;;;;;;;8.15;4.60;;;;;;;33.33;36.46;98387.44;5016623;28;20461;-65
2023/07/27 06:32:39;;;;;;;8.02;4.85;;;;;;;33.35;36.05;98393.38;4999894;28;20152;-65
2023/07/27 06:35:05;;;;;;;6.63;5.13;;;;;;;33.29;36.11;98407.69;4983438;28;20042;-67
2023/07/27 06:37:31;;;;;;;9.13;5.30;;;;;;;33.20;36.40;98406.97;5000684;28;20057;-65
2023/07/27 06:39:57;;;;;;;10.35;5.07;;;;;;;33.33;36.03;98416.88;5017551;28;20046;-65
2023/07/27 06:42:25;;;;;;;11.68;5.28;;;;;;;33.43;35.90;98403.56;5000106;28;20047;-66
2023/07/27 06:44:52;;;;;;;15.52;6.00;;;;;;;33.40;35.42;98395.19;5033015;28;20128;-66
2023/07/27 06:47:18;;;;;;;12.20;4.80;;;;;;;33.51;35.23;98386.16;5016332;28;20046;-66
2023/07/27 06:49:48;;;;;;;8.90;4.88;;;;;;;33.64;34.76;98384.28;5017323;28;20103;-66
2023/07/27 06:52:14;;;;;;;8.40;4.95;;;;;;;33.78;34.24;98388.31;4983702;28;20049;-65
2023/07/27 06:54:40;;;;;;;8.60;5.20;;;;;;;34.04;33.83;98391.66;5014969;28;20131;-66
2023/07/27 06:57:09;;;;;;;14.60;5.10;;;;;;;34.47;33.34;98382.91;4982674;28;20431;-66
2023/07/27 06:59:36;;;;;;;5.78;3.90;;;;;;;34.50;30.43;98393.25;4983226;28;20471;-66
2023/07/27 07:02:03;;;;;;;8.15;4.32;;;;;;;34.74;31.12;98381.41;4998651;28;20092;-66
2023/07/27 07:04:31;;;;;;;11.05;4.53;;;;;;;35.13;29.94;98384.28;5031728;28;20156;-66
2023/07/27 07:06:57;;;;;;;6.38;3.75;;;;;;;35.94;29.40;98385.84;4982298;28;20068;-66
2023/07/27 07:09:25;;;;;;;7.60;3.42;;;;;;;36.33;27.82;98385.75;4998737;28;20053;-66
2023/07/27 07:11:50;;;;;;;6.18;3.72;;;;;;;36.70;27.14;98389.03;4998706;28;20136;-65
2023/07/27 07:14:17;;;;;;;8.70;3.22;;;;;;;36.88;26.00;98385.56;5015407;28;20053;-66
2023/07/27 07:16:43;;;;;;;6.75;3.40;;;;;;;37.06;26.22;98383.19;5015004;28;20418;-66
2023/07/27 07:19:10;;;;;;;6.25;3.22;;;;;;;37.19;25.66;98379.13;4998375;28;20061;-66
2023/07/27 07:21:36;;;;;;;7.35;3.92;;;;;;;37.54;25.49;98376.31;5015195;28;20053;-67
2023/07/27 07:24:03;;;;;;;10.68;3.78;;;;;;;38.05;24.93;98369.44;4999249;28;20064;-66
2023/07/27 07:26:29;;;;;;;6.30;3.58;;;;;;;38.59;24.25;98367.28;4998451;28;20056;-66
2023/07/27 07:28:57;;;;;;;7.60;3.80;;;;;;;39.41;23.15;98357.00;5015325;28;20065;-66
2023/07/27 07:31:22;;;;;;;6.00;3.47;;;;;;;40.42;22.13;98366.84;5014541;28;20060;-66
2023/07/27 07:33:48;;;;;;;7.20;3.65;;;;;;;40.95;21.07;98380.03;4998245;28;20049;-66
2023/07/27 07:36:16;;;;;;;6.00;3.30;;;;;;;41.76;20.01;98384.06;4998481;28;20060;-66
2023/07/27 07:38:42;;;;;;;10.30;3.00;;;;;;;43.13;18.52;98386.25;4997880;28;20049;-66
2023/07/27 07:41:08;;;;;;;5.80;2.80;;;;;;;44.65;16.59;98375.91;4987914;28;20051;-66
2023/07/27 07:43:33;;;;;;;5.50;2.85;;;;;;;46.00;15.52;98388.00;4955926;28;20069;-66
2023/07/27 07:45:59;;;;;;;5.88;2.42;;;;;;;47.92;14.36;98399.09;4955809;28;20055;-67
2023/07/27 07:48:27;;;;;;;4.57;2.70;;;;;;;49.89;12.63;98395.59;4955611;28;20528;-67
2023/07/27 07:50:54;;;;;;;8.88;2.53;;;;;;;50.14;11.81;98394.84;4955527;28;20063;-67
2023/07/27 07:53:20;;;;;;;6.72;2.60;;;;;;;48.37;12.99;98392.44;4971757;28;20093;-67
2023/07/27 07:55:46;;;;;;;6.28;2.67;;;;;;;48.36;13.17;98392.88;4958467;28;20049;-66
2023/07/27 07:58:13;;;;;;;6.00;2.58;;;;;;;48.84;12.87;98390.09;4974722;28;20057;-66
2023/07/27 08:00:39;;;;;;;8.85;3.13;;;;;;;47.95;13.21;98384.19;4974966;28;20120;-67
2023/07/27 08:03:07;;;;;;;3.97;2.63;;;;;;;47.55;13.86;98386.97;4975509;28;20053;-66
2023/07/27 08:05:33;;;;;;;5.65;2.60;;;;;;;48.72;12.59;98387.97;4974809;28;20053;-69
2023/07/27 08:08:02;;;;;;;5.88;2.80;;;;;;;50.67;11.44;98382.66;4974583;28;20057;-68
2023/07/27 08:10:29;;;;;;;3.80;2.40;;;;;;;51.81;10.54;98393.09;4974591;28;20050;-67
2023/07/27 08:12:56;;;;;;;4.85;2.53;;;;;;;51.96;10.32;98393.34;5009951;28;20052;-67
2023/07/27 08:15:22;;;;;;;2.75;2.10;;;;;;;52.82;10.18;98393.06;5017355;28;20037;-67
2023/07/27 08:17:51;;;;;;;4.60;2.38;;;;;;;53.78;9.60;98390.38;5001632;28;20037;-68
2023/07/27 08:20:17;;;;;;;12.10;2.50;;;;;;;54.10;8.91;98389.66;4985283;28;20175;-68
2023/07/27 08:22:43;;;;;;;6.30;2.58;;;;;;;52.67;10.08;98391.31;5050918;28;20052;-68
2023/07/27 08:25:10;;;;;;;3.45;2.15;;;;;;;52.13;10.34;98397.53;5017706;28;20052;-73
2023/07/27 08:27:36;;;;;;;5.32;2.20;;;;;;;51.33;10.00;98405.00;5017729;28;20165;-68
2023/07/27 08:30:03;;;;;;;6.07;2.33;;;;;;;50.15;11.00;98408.53;5037428;28;20056;-67
2023/07/27 08:32:32;;;;;;;5.37;2.67;;;;;;;50.29;11.07;98396.78;5014011;28;20136;-67
2023/07/27 08:34:58;;;;;;;8.13;2.33;;;;;;;49.65;11.52;98396.31;4997550;28;20518;-67
2023/07/27 08:37:30;;;;;;;4.25;2.33;;;;;;;48.54;12.59;98382.75;4981334;28;20198;-67
2023/07/27 08:39:58;;;;;;;4.43;2.20;;;;;;;50.01;11.78;98391.25;5013334;28;20041;-67
2023/07/27 08:42:24;;;;;;;8.00;2.50;;;;;;;51.33;10.21;98388.00;4997028;28;20512;-67
2023/07/27 08:44:50;;;;;;;7.10;2.40;;;;;;;52.80;9.69;98401.25;4997402;28;20045;-67
2023/07/27 08:47:18;;;;;;;4.18;2.10;;;;;;;53.13;8.98;98395.78;4977283;28;20061;-68
2023/07/27 08:49:45;;;;;;;4.93;2.10;;;;;;;54.36;8.28;98401.44;4993631;28;20065;-67
2023/07/27 08:52:14;;;;;;;9.10;2.40;;;;;;;54.75;8.02;98386.06;4961449;28;20050;-67
2023/07/27 08:54:41;;;;;;;3.28;2.28;;;;;;;55.71;7.49;98396.84;4994184;28;20546;-71
2023/07/27 08:57:07;;;;;;;3.08;2.00;;;;;;;56.93;7.23;98399.59;4977745;28;20453;-67
2023/07/27 08:59:35;;;;;;;3.65;2.17;;;;;;;56.70;6.80;98404.22;4993781;28;20040;-67
2023/07/27 09:02:01;;;;;;;3.83;1.80;;;;;;;54.70;8.28;98392.44;4993884;28;20164;-68
2023/07/27 09:04:27;;;;;;;4.30;2.05;;;;;;;55.54;8.07;98405.09;4993642;28;20085;-67
2023/07/27 09:06:52;;;;;;;5.53;2.30;;;;;;;56.88;6.79;98406.03;4956190;28;20502;-67
2023/07/27 09:09:23;;;;;;;3.58;1.95;;;;;;;58.07;6.32;98403.50;4984113;28;20057;-67
2023/07/27 09:11:50;;;;;;;3.38;2.13;;;;;;;59.20;5.76;98411.75;4996696;28;20119;-68
2023/07/27 09:14:19;;;;;;;5.70;2.00;;;;;;;60.07;5.27;98398.16;5013221;28;20078;-68
2023/07/27 09:16:46;;;;;;;2.97;1.80;;;;;;;60.64;5.26;98403.31;5029854;28;20045;-68
2023/07/27 09:19:13;;;;;;;2.85;2.20;;;;;;;58.49;5.76;98400.69;5000599;28;20059;-68
2023/07/27 09:21:46;;;;;;;3.72;2.28;;;;;;;56.62;6.56;98394.50;4968304;28;20151;-67
2023/07/27 09:24:12;;;;;;;5.78;2.20;;;;;;;54.54;8.24;98382.25;5019048;28;20084;-67
2023/07/27 09:26:49;;;;;;;6.20;2.20;;;;;;;52.91;9.29;98381.72;5020469;28;20533;-67
2023/07/27 09:29:17;;;;;;;5.35;2.25;;;;;;;51.07;10.37;98374.41;5036095;28;20427;-66
2023/07/27 09:31:45;;;;;;;5.00;2.50;;;;;;;49.12;11.36;98363.94;5052954;28;20056;-69
2023/07/27 09:34:10;;;;;;;8.32;2.78;;;;;;;47.59;13.07;98362.38;5053302;28;20142;-66
2023/07/27 09:36:42;;;;;;;5.32;3.20;;;;;;;44.76;15.43;98353.38;5036218;28;20102;-66
2023/07/27 09:39:09;;;;;;;3.58;2.70;;;;;;;42.96;16.61;98362.69;5053447;28;20056;-67
2023/07/27 09:41:36;;;;;;;6.72;3.35;;;;;;;42.32;17.66;98355.53;5016532;28;20547;-67
2023/07/27 09:44:04;;;;;;;8.02;3.03;;;;;;;41.63;18.72;98360.53;4981268;28;20046;-66
2023/07/27 09:46:30;;;;;;;3.92;2.80;;;;;;;41.26;18.80;98357.16;5032623;28;20495;-66
2023/07/27 09:48:59;;;;;;;5.10;3.22;;;;;;;40.20;19.66;98349.97;4999953;28;20499;-67
2023/07/27 09:51:27;;;;;;;;;;;;;;;40.17;20.47;98344.34;4997094;28;20487;-66
2023/07/27 09:53:56;;;;;;;4.20;2.75;;;;;;;40.21;20.21;98345.97;4996931;28;19927;-66
2023/07/27 09:56:22;;;;;;;4.95;2.92;;;;;;;39.81;20.57;98342.38;4980699;28;20054;-65
2023/07/27 09:58:50;;;;;;;3.40;2.85;;;;;;;40.25;20.48;98346.03;4996875;28;20500;-66
2023/07/27 10:01:18;;;;;;;6.53;3.35;;;;;;;41.52;19.48;98342.94;4962588;28;20052;-66
2023/07/27 10:03:46;;;;;;;7.57;3.03;;;;;;;42.33;18.54;98340.38;4977524;28;20061;-66
2023/07/27 10:06:19;;;;;;;7.13;3.08;;;;;;;43.28;18.08;98336.66;4961273;28;20042;-67
2023/07/27 10:08:45;;;;;;;4.18;2.88;;;;;;;44.27;16.93;98327.34;4993086;28;20061;-68
2023/07/27 10:11:11;;;;;;;4.30;2.90;;;;;;;45.79;15.44;98335.78;4960489;28;20054;-67
2023/07/27 10:13:43;;;;;;;4.60;2.88;;;;;;;46.88;14.63;98339.69;4996146;28;20054;-67
2023/07/27 10:16:11;;;;;;;6.82;2.55;;;;;;;48.14;13.99;98326.97;4980000;28;20504;-67
2023/07/27 10:18:42;;;;;;;4.13;2.60;;;;;;;48.32;13.38;98321.72;4980629;28;20144;-66
2023/07/27 10:21:28;;;;;;;4.72;2.75;;;;;;;47.96;13.59;98312.53;4980024;28;20046;-67
2023/07/27 10:24:00;;;;;;;6.97;2.75;;;;;;;47.16;14.11;98318.66;4996876;28;20050;-66
2023/07/27 10:26:51;;;;;;;5.68;2.53;;;;;;;46.30;14.48;98325.41;4964097;28;20037;-66
2023/07/27 10:29:26;;;;;;;3.42;2.70;;;;;;;45.36;15.43;98311.47;4993170;28;20053;-66
2023/07/27 10:32:05;;;;;;;3.03;2.72;;;;;;;44.48;16.04;98306.78;4999906;28;20039;-69
2023/07/27 10:34:34;;;;;;;4.07;2.80;;;;;;;43.77;16.68;98306.47;5015855;28;20470;-66
2023/07/27 10:37:04;;;;;;;5.93;2.65;;;;;;;43.42;17.05;98303.84;5040500;28;20140;-66
2023/07/27 10:39:35;;;;;;;4.25;2.88;;;;;;;43.35;17.43;98291.91;5000310;28;20103;-66
2023/07/27 10:42:06;;;;;;;6.53;3.20;;;;;;;43.25;17.79;98279.56;5033311;28;20148;-66
2023/07/27 10:44:52;;;;;;;4.60;2.80;;;;;;;43.02;17.53;98298.81;4984316;28;20060;-66
2023/07/27 10:47:26;;;;;;;3.85;2.72;;;;;;;43.33;17.54;98300.72;5033781;28;20045;-66
2023/07/27 10:49:54;;;;;;;4.70;2.97;;;;;;;43.75;16.93;98300.50;5000089;28;20494;-66
2023/07/27 10:52:22;;;;;;;4.93;2.67;;;;;;;43.76;17.12;98307.69;5000028;28;20136;-66
2023/07/27 10:54:49;;;;;;;4.15;2.72;;;;;;;43.44;17.37;98293.06;5016816;28;20132;-66
2023/07/27 10:57:17;;;;;;;4.85;2.70;;;;;;;42.93;18.04;98304.03;5019816;28;20051;-66
2023/07/27 10:59:48;;;;;;;3.22;2.90;;;;;;;42.31;18.50;98320.44;5020656;28;20079;-66
2023/07/27 11:02:23;;;;;;;9.45;3.22;;;;;;;41.78;19.25;98302.00;5019551;28;20057;-67
2023/07/27 11:04:54;;;;;;;4.53;2.97;;;;;;;42.95;18.39;98315.56;5051502;28;20473;-66
2023/07/27 11:07:37;;;;;;;5.35;3.00;;;;;;;43.45;18.01;98325.41;5002010;28;20107;-66
2023/07/27 11:10:17;;;;;;;8.82;2.97;;;;;;;42.85;18.05;98316.41;5035229;28;20091;-66
2023/07/27 11:12:54;;;;;;;5.28;2.67;;;;;;;41.42;19.12;98301.06;5034549;28;20049;-66
2023/07/27 11:15:29;;;;;;;5.47;2.67;;;;;;;40.39;20.13;98273.81;5001905;28;20045;-66
2023/07/27 11:17:58;;;;;;;6.75;2.92;;;;;;;39.95;20.85;98298.06;5034826;28;20053;-66
2023/07/27 11:20:28;;;;;;;3.90;2.70;;;;;;;39.92;21.17;98309.94;4982666;28;20130;-66
2023/07/27 11:22:56;;;;;;;4.88;2.60;;;;;;;39.77;21.18;98303.41;5031513;28;20053;-66
2023/07/27 11:25:24;;;;;;;6.07;2.70;;;;;;;40.20;20.91;98305.44;5014988;28;20521;-69
2023/07/27 11:27:51;;;;;;;3.47;2.63;;;;;;;40.40;20.89;98314.38;5011481;28;20045;-66
2023/07/27 11:30:21;;;;;;;4.70;2.90;;;;;;;40.76;20.30;98319.03;5014618;28;20054;-66
2023/07/27 11:33:00;;;;;;;;;;;;;;;41.07;20.39;98318.41;4966827;28;20472;-65